This is the latest recevied weather packets stored in our database for station/object OE5RBO. If no packets are shown the sender has not sent any weather packets the latest 10 day(s).
| Time | Temp. | Humidity | Pressure | Rain* | Wind** | Luminosity | Snow |
|---|---|---|---|---|---|---|---|
| 1787507129 | 20.56° C | 68% | 1021.2 hPa | 0 mm | - | - | - |
| 1787506529 | 21.11° C | 67% | 1021.2 hPa | 0 mm | - | - | - |
| 1787505328 | 22.78° C | 61% | 1021.1 hPa | 0 mm | - | - | - |
| 1787504728 | 23.33° C | 60% | 1021.1 hPa | 0 mm | - | - | - |
| 1787504127 | 23.33° C | 58% | 1021.1 hPa | 0 mm | - | - | - |
| 1787503527 | 23.33° C | 59% | 1021.1 hPa | 0 mm | - | - | - |
| 1787502326 | 23.89° C | 54% | 1021 hPa | 0 mm | - | - | - |
| 1787501126 | 24.44° C | 55% | 1021.1 hPa | 0 mm | - | - | - |
| 1787500525 | 24.44° C | 58% | 1020.9 hPa | 0 mm | - | - | - |
| 1787499925 | 25° C | 54% | 1020.8 hPa | 0 mm | - | - | - |
| 1787498724 | 24.44° C | 54% | 1020.8 hPa | 0 mm | - | - | - |
| 1787497523 | 24.44° C | 54% | 1020.9 hPa | 0 mm | - | - | - |
| 1787496923 | 24.44° C | 55% | 1020.9 hPa | 0 mm | - | - | - |
| 1787496323 | 23.33° C | 58% | 1020.9 hPa | 0 mm | - | - | - |
| 1787495722 | 23.33° C | 57% | 1020.9 hPa | 0 mm | - | - | - |
| 1787495122 | 24.44° C | 54% | 1021 hPa | 0 mm | - | - | - |
| 1787494522 | 23.89° C | 58% | 1021 hPa | 0 mm | - | - | - |
| 1787493921 | 25° C | 51% | 1021.2 hPa | 0 mm | - | - | - |
| 1787493321 | 26.67° C | 47% | 1021.2 hPa | 0 mm | - | - | - |
| 1787492120 | 25.56° C | 48% | 1021.1 hPa | 0 mm | - | - | - |
| 1787491520 | 25.56° C | 48% | 1021.1 hPa | 0 mm | - | - | - |
| 1787490919 | 25.56° C | 50% | 1021.2 hPa | 0 mm | - | - | - |
| 1787489719 | 25° C | 53% | 1021.2 hPa | 0 mm | - | - | - |
| 1787489119 | 25.56° C | 52% | 1021.2 hPa | 0 mm | - | - | - |
| 1787488518 | 25° C | 53% | 1021.2 hPa | 0 mm | - | - | - |
* Rain since midnight (hover to see other rain measurements)
** Current wind speed in m/s (hover to see current wind gust speed)